createdAt,value
2019-02-26T00:00:02.800Z,65.47
2019-02-26T00:03:08.219Z,61.57
2019-02-26T00:06:12.993Z,63.67
2019-02-26T00:09:20.475Z,59.67
2019-02-26T00:12:24.185Z,59.17
2019-02-26T00:15:33.285Z,58.33
2019-02-26T00:18:36.774Z,58.90
2019-02-26T00:21:43.017Z,60.73
2019-02-26T00:24:47.819Z,59.43
2019-02-26T00:27:54.623Z,61.17
2019-02-26T00:30:59.947Z,59.27
2019-02-26T00:34:06.016Z,62.07
2019-02-26T00:37:11.886Z,62.53
2019-02-26T00:40:19.653Z,62.97
2019-02-26T00:43:25.323Z,60.63
2019-02-26T00:46:32.580Z,58.23
2019-02-26T00:49:39.112Z,64.30
2019-02-26T00:52:43.434Z,59.03
2019-02-26T00:55:47.838Z,61.37
2019-02-26T00:58:52.220Z,59.20
2019-02-26T01:01:57.098Z,60.63
2019-02-26T01:05:06.297Z,58.30
2019-02-26T01:08:15.741Z,58.73
2019-02-26T01:11:21.558Z,56.43
2019-02-26T01:14:26.609Z,57.30
2019-02-26T01:17:33.259Z,57.10
2019-02-26T01:20:37.315Z,54.07
2019-02-26T01:23:41.649Z,55.40
2019-02-26T01:26:46.077Z,55.33
2019-02-26T01:29:51.808Z,54.23
2019-02-26T01:32:58.223Z,53.70
2019-02-26T01:36:02.781Z,53.53
2019-02-26T01:39:11.247Z,52.43
2019-02-26T01:42:17.381Z,53.80
2019-02-26T01:45:22.403Z,50.83
2019-02-26T01:48:27.141Z,52.60
2019-02-26T01:51:32.797Z,54.70
2019-02-26T01:54:39.501Z,52.37
2019-02-26T01:57:43.775Z,54.73
2019-02-26T02:00:48.206Z,55.87
2019-02-26T02:03:55.847Z,55.90
2019-02-26T02:07:00.959Z,56.30
2019-02-26T02:10:05.675Z,51.83
2019-02-26T02:13:11.428Z,54.97
2019-02-26T02:16:17.410Z,56.37
2019-02-26T02:19:23.405Z,55.10
2019-02-26T02:22:29.514Z,53.10
2019-02-26T02:25:36.173Z,54.87
2019-02-26T02:28:40.127Z,50.17
2019-02-26T02:31:47.668Z,53.23
2019-02-26T02:34:52.050Z,51.93
2019-02-26T02:37:59.575Z,49.90
2019-02-26T02:41:02.821Z,50.00
2019-02-26T02:44:07.230Z,50.10
2019-02-26T02:47:11.634Z,49.57
2019-02-26T02:50:18.214Z,47.00
2019-02-26T02:53:23.922Z,49.33
2019-02-26T02:56:28.240Z,49.00
2019-02-26T02:59:34.039Z,47.73
2019-02-26T03:02:42.869Z,47.90
2019-02-26T03:05:45.893Z,41.60
2019-02-26T03:08:51.043Z,41.87
2019-02-26T03:11:56.403Z,44.43
2019-02-26T03:15:02.398Z,44.13
2019-02-26T03:18:09.404Z,46.03
2019-02-26T03:21:13.109Z,44.47
2019-02-26T03:24:17.731Z,43.00
2019-02-26T03:27:22.146Z,43.87
2019-02-26T03:30:32.657Z,47.97
2019-02-26T03:33:32.561Z,47.00
2019-02-26T03:36:38.284Z,45.90
2019-02-26T03:39:43.090Z,48.47
2019-02-26T03:42:47.722Z,47.00
2019-02-26T03:45:52.168Z,47.97
2019-02-26T03:48:56.477Z,47.90
2019-02-26T03:52:00.793Z,47.43
2019-02-26T03:55:06.839Z,49.87
2019-02-26T03:58:12.117Z,48.50
2019-02-26T04:01:18.761Z,47.70
2019-02-26T04:04:22.997Z,48.07
2019-02-26T04:07:30.281Z,49.80
2019-02-26T04:10:34.678Z,46.17
2019-02-26T04:13:41.050Z,47.90
2019-02-26T04:16:45.161Z,47.43
2019-02-26T04:19:49.498Z,45.07
2019-02-26T04:22:56.747Z,47.43
2019-02-26T04:26:59.524Z,46.83
2019-02-26T04:30:33.891Z,46.57
2019-02-26T04:34:23.330Z,44.90
2019-02-26T04:38:07.565Z,43.70
2019-02-26T04:41:33.019Z,46.20
2019-02-26T04:45:22.193Z,45.93
2019-02-26T04:48:32.486Z,46.47
2019-02-26T04:51:39.877Z,46.77
2019-02-26T04:54:44.241Z,46.63
2019-02-26T04:57:53.963Z,45.10
2019-02-26T05:01:00.699Z,47.17
2019-02-26T05:04:06.496Z,45.50
2019-02-26T05:07:14.052Z,45.37
2019-02-26T05:10:20.501Z,47.53
2019-02-26T05:13:27.014Z,49.43
2019-02-26T05:16:34.199Z,45.37
2019-02-26T05:19:39.564Z,48.70
2019-02-26T05:22:43.559Z,47.47
2019-02-26T05:25:50.926Z,48.97
2019-02-26T05:28:55.291Z,50.60
2019-02-26T05:32:01.086Z,49.50
2019-02-26T05:35:06.021Z,52.90
2019-02-26T05:38:10.331Z,53.90
2019-02-26T05:41:14.608Z,50.60
2019-02-26T05:44:21.754Z,49.80
2019-02-26T05:47:26.701Z,51.90
2019-02-26T05:50:34.626Z,52.83
2019-02-26T05:53:37.182Z,52.27
2019-02-26T05:56:43.582Z,51.80
2019-02-26T05:59:47.669Z,54.57
2019-02-26T06:02:52.110Z,54.13
2019-02-26T06:05:58.250Z,53.07
2019-02-26T06:09:05.045Z,59.63
2019-02-26T06:12:08.564Z,56.87
2019-02-26T06:15:13.093Z,53.03
2019-02-26T06:18:17.428Z,58.10
2019-02-26T06:21:23.499Z,59.60
2019-02-26T06:24:29.803Z,59.67
2019-02-26T06:27:34.974Z,59.00
2019-02-26T06:30:39.276Z,58.83
2019-02-26T06:33:45.478Z,56.50
2019-02-26T06:36:51.580Z,56.00
2019-02-26T06:39:59.369Z,58.40
2019-02-26T06:43:01.700Z,57.63
2019-02-26T06:46:09.266Z,58.60
2019-02-26T06:49:12.033Z,60.23
2019-02-26T06:52:17.999Z,59.17
2019-02-26T06:55:22.390Z,56.33
2019-02-26T06:58:28.309Z,56.37
2019-02-26T07:01:35.256Z,61.27
2019-02-26T07:04:42.829Z,56.50
2019-02-26T07:07:47.141Z,57.37
2019-02-26T07:10:51.441Z,52.97
2019-02-26T07:13:55.741Z,57.53
2019-02-26T07:17:03.127Z,56.20
2019-02-26T07:20:07.873Z,55.97
2019-02-26T07:23:12.923Z,55.30
2019-02-26T07:26:18.887Z,55.93
2019-02-26T07:29:24.272Z,54.97
2019-02-26T07:32:28.594Z,54.00
2019-02-26T07:35:35.007Z,50.93
2019-02-26T07:38:41.560Z,52.53
2019-02-26T07:41:49.327Z,52.30
2019-02-26T07:44:53.706Z,53.53
2019-02-26T07:47:59.099Z,48.67
2019-02-26T07:51:04.029Z,48.13
2019-02-26T07:54:08.327Z,49.07
2019-02-26T07:57:12.607Z,46.33
2019-02-26T08:00:18.810Z,45.20
2019-02-26T08:03:26.188Z,45.57
2019-02-26T08:06:31.517Z,42.93
2019-02-26T08:09:35.404Z,43.40
2019-02-26T08:12:40.905Z,42.67
2019-02-26T08:15:45.727Z,39.73
2019-02-26T08:18:51.683Z,42.53
2019-02-26T08:21:57.108Z,41.67
2019-02-26T08:25:01.528Z,42.87
2019-02-26T08:28:05.854Z,44.00
2019-02-26T08:31:13.313Z,42.83
2019-02-26T08:34:16.197Z,42.33
2019-02-26T08:37:20.504Z,44.17
2019-02-26T08:40:24.810Z,44.10
2019-02-26T08:43:30.504Z,40.37
2019-02-26T08:46:34.786Z,40.97
2019-02-26T08:49:40.740Z,42.20
2019-02-26T08:52:49.413Z,40.67
2019-02-26T08:55:53.512Z,42.60
2019-02-26T08:58:58.480Z,43.33
2019-02-26T09:02:03.233Z,42.90
2019-02-26T09:05:09.862Z,40.73
2019-02-26T09:08:15.936Z,43.17
2019-02-26T09:11:20.470Z,42.57
2019-02-26T09:14:24.754Z,43.47
2019-02-26T09:17:30.433Z,43.70
2019-02-26T09:20:35.086Z,45.17
2019-02-26T09:23:39.382Z,43.30
2019-02-26T09:26:43.865Z,45.07
2019-02-26T09:29:51.465Z,43.97
2019-02-26T09:32:56.005Z,44.40
2019-02-26T09:36:00.324Z,42.50
2019-02-26T09:39:08.203Z,44.50
2019-02-26T09:42:12.231Z,44.00
2019-02-26T09:45:20.355Z,44.93
2019-02-26T09:48:23.850Z,43.70
2019-02-26T09:51:28.815Z,44.50
2019-02-26T09:54:37.773Z,43.27
2019-02-26T09:57:40.326Z,39.60
2019-02-26T10:00:48.007Z,42.67
2019-02-26T10:03:50.795Z,43.20
2019-02-26T10:06:55.107Z,41.90
2019-02-26T10:10:00.502Z,41.83
2019-02-26T10:13:05.597Z,40.80
2019-02-26T10:16:09.892Z,42.53
2019-02-26T10:19:14.885Z,41.23
2019-02-26T10:22:20.445Z,43.60
2019-02-26T10:25:26.413Z,46.53
2019-02-26T10:28:30.791Z,47.83
2019-02-26T10:31:40.415Z,47.00
2019-02-26T10:34:46.323Z,43.37
2019-02-26T10:37:52.489Z,41.57
2019-02-26T10:40:59.279Z,41.70
2019-02-26T10:44:03.063Z,40.73
2019-02-26T10:47:08.718Z,41.73
2019-02-26T10:50:18.875Z,41.77
2019-02-26T10:53:22.774Z,41.70
2019-02-26T10:56:28.690Z,43.13
2019-02-26T10:59:33.401Z,43.27
2019-02-26T11:02:37.728Z,40.93
2019-02-26T11:05:42.620Z,42.27
2019-02-26T11:08:50.426Z,42.63
2019-02-26T11:11:54.876Z,42.77
2019-02-26T11:15:01.703Z,40.80
2019-02-26T11:18:08.088Z,41.87
2019-02-26T11:21:12.240Z,42.77
2019-02-26T11:24:17.007Z,42.70
2019-02-26T11:27:21.431Z,40.63
2019-02-26T11:30:28.736Z,41.33
2019-02-26T11:33:31.846Z,42.57
2019-02-26T11:36:38.384Z,40.57
2019-02-26T11:39:42.204Z,41.10
2019-02-26T11:42:47.275Z,40.07
2019-02-26T11:45:52.526Z,37.27
2019-02-26T11:48:57.436Z,41.20
2019-02-26T11:52:04.509Z,40.30
2019-02-26T11:55:10.890Z,40.17
2019-02-26T11:58:15.885Z,36.33
2019-02-26T12:01:20.692Z,37.93
2019-02-26T12:04:25.095Z,37.50
2019-02-26T12:07:29.757Z,38.30
2019-02-26T12:10:37.832Z,37.93
2019-02-26T12:13:47.233Z,38.93
2019-02-26T12:16:52.306Z,38.63
2019-02-26T12:20:03.528Z,39.13
2019-02-26T12:23:16.136Z,39.93
2019-02-26T12:26:30.202Z,41.53
2019-02-26T12:29:43.659Z,39.97
2019-02-26T12:32:53.092Z,40.03
2019-02-26T12:35:59.519Z,40.20
2019-02-26T12:39:03.102Z,41.57
2019-02-26T12:42:10.443Z,38.37
2019-02-26T12:45:14.169Z,38.37
2019-02-26T12:48:21.953Z,37.93
2019-02-26T12:51:28.090Z,36.03
2019-02-26T12:54:36.442Z,35.07
2019-02-26T12:57:39.028Z,34.87
2019-02-26T13:00:43.355Z,36.40
2019-02-26T13:03:54.041Z,37.63
2019-02-26T13:06:53.800Z,40.23
2019-02-26T13:10:02.750Z,36.30
2019-02-26T13:13:07.647Z,33.57
2019-02-26T13:16:10.237Z,36.80
2019-02-26T13:19:18.317Z,37.33
2019-02-26T13:22:20.555Z,35.30
2019-02-26T13:25:26.818Z,35.07
2019-02-26T13:28:30.902Z,36.87
2019-02-26T13:31:41.743Z,37.93
2019-02-26T13:34:41.249Z,32.33
2019-02-26T13:37:46.315Z,32.87
2019-02-26T13:40:50.609Z,32.93
2019-02-26T13:43:54.910Z,32.70
2019-02-26T13:46:59.234Z,29.90
2019-02-26T13:50:03.541Z,30.77
2019-02-26T13:53:11.082Z,31.07
2019-02-26T13:56:15.388Z,32.33
2019-02-26T13:59:19.772Z,30.13
2019-02-26T14:02:24.085Z,30.10
2019-02-26T14:05:28.389Z,29.60
2019-02-26T14:08:32.706Z,27.33
2019-02-26T14:11:36.997Z,28.10
2019-02-26T14:14:41.307Z,26.67
2019-02-26T14:17:45.617Z,27.73
2019-02-26T14:20:50.022Z,28.43
2019-02-26T14:23:54.329Z,25.97
2019-02-26T14:26:58.635Z,27.53
2019-02-26T14:30:02.939Z,25.17
2019-02-26T14:33:07.259Z,26.20
2019-02-26T14:36:11.587Z,25.17
2019-02-26T14:39:15.875Z,25.77
2019-02-26T14:42:21.619Z,26.20
2019-02-26T14:45:26.154Z,26.23
2019-02-26T14:48:30.473Z,24.93
2019-02-26T14:51:34.946Z,26.20
2019-02-26T14:54:39.267Z,24.73
2019-02-26T14:57:43.688Z,26.43
2019-02-26T15:00:57.131Z,23.23
2019-02-26T15:03:55.146Z,26.80
2019-02-26T15:06:59.608Z,27.27
2019-02-26T15:10:04.328Z,24.80
2019-02-26T15:13:08.609Z,23.50
2019-02-26T15:16:12.926Z,21.83
2019-02-26T15:19:19.747Z,22.40
2019-02-26T15:22:24.325Z,22.07
2019-02-26T15:25:28.624Z,21.27
2019-02-26T15:28:32.919Z,20.47
2019-02-26T15:31:37.209Z,19.77
2019-02-26T15:34:41.615Z,20.97
2019-02-26T15:37:46.035Z,19.87
2019-02-26T15:40:51.157Z,20.13
2019-02-26T15:43:57.075Z,20.53
2019-02-26T15:47:02.297Z,20.63
2019-02-26T15:50:08.984Z,21.63
2019-02-26T15:53:13.957Z,21.17
2019-02-26T15:56:21.232Z,23.20
2019-02-26T15:59:25.523Z,21.57
2019-02-26T16:02:32.865Z,22.03
2019-02-26T16:05:37.284Z,22.97
2019-02-26T16:08:43.378Z,23.23
2019-02-26T16:11:48.410Z,24.17
2019-02-26T16:14:52.703Z,23.17
2019-02-26T16:17:58.496Z,23.73
2019-02-26T16:21:03.374Z,25.17
2019-02-26T16:24:10.793Z,23.27
2019-02-26T16:27:15.110Z,25.80
2019-02-26T16:30:20.732Z,22.37
2019-02-26T16:33:25.055Z,25.30
2019-02-26T16:36:31.583Z,24.53
2019-02-26T16:39:35.442Z,24.53
2019-02-26T16:42:39.788Z,23.33
2019-02-26T16:45:44.082Z,24.17
2019-02-26T16:48:48.404Z,24.70
2019-02-26T16:51:54.961Z,25.13
2019-02-26T16:54:59.120Z,25.43
2019-02-26T16:58:03.631Z,24.23
2019-02-26T17:01:08.553Z,24.07
2019-02-26T17:04:12.985Z,23.53
2019-02-26T17:07:17.532Z,24.20
2019-02-26T17:10:21.853Z,22.70
2019-02-26T17:13:26.244Z,24.97
2019-02-26T17:16:31.866Z,22.47
2019-02-26T17:19:39.355Z,23.37
2019-02-26T17:22:44.992Z,23.83
2019-02-26T17:25:49.449Z,23.37
2019-02-26T17:28:54.063Z,23.33
2019-02-26T17:32:04.041Z,22.93
2019-02-26T17:35:06.179Z,23.37
2019-02-26T17:38:10.655Z,24.13
2019-02-26T17:41:14.986Z,23.87
2019-02-26T17:44:19.445Z,23.23
2019-02-26T17:47:23.728Z,23.57
2019-02-26T17:50:30.117Z,23.33
2019-02-26T17:53:39.189Z,23.33
2019-02-26T17:56:43.669Z,22.63
2019-02-26T17:59:47.994Z,22.73
2019-02-26T18:02:52.607Z,22.67
2019-02-26T18:05:56.921Z,23.23
2019-02-26T18:09:04.861Z,21.80
2019-02-26T18:12:09.208Z,19.10
2019-02-26T18:15:16.653Z,19.30
2019-02-26T18:18:20.453Z,19.43
2019-02-26T18:21:24.910Z,19.23
2019-02-26T18:24:29.233Z,19.27
2019-02-26T18:27:33.540Z,19.40
2019-02-26T18:30:37.841Z,19.70
2019-02-26T18:33:42.555Z,20.53
2019-02-26T18:36:48.052Z,19.90
2019-02-26T18:39:54.363Z,21.77
2019-02-26T18:42:58.896Z,21.83
2019-02-26T18:46:03.548Z,21.27
2019-02-26T18:49:08.095Z,21.53
2019-02-26T18:52:12.541Z,23.17
2019-02-26T18:55:20.227Z,23.93
2019-02-26T18:58:24.738Z,22.77
2019-02-26T19:01:30.830Z,24.93
2019-02-26T19:04:37.575Z,26.50
2019-02-26T19:07:41.919Z,26.23
2019-02-26T19:10:46.229Z,27.13
2019-02-26T19:13:50.558Z,27.23
2019-02-26T19:16:55.070Z,27.10
2019-02-26T19:19:59.624Z,28.33
2019-02-26T19:23:04.084Z,27.53
2019-02-26T19:26:08.590Z,27.43
2019-02-26T19:29:15.445Z,26.63
2019-02-26T19:32:23.214Z,26.53
2019-02-26T19:35:28.026Z,26.00
2019-02-26T19:38:35.094Z,26.20
2019-02-26T19:41:40.951Z,27.40
2019-02-26T19:44:46.757Z,26.13
2019-02-26T19:47:55.807Z,25.47
2019-02-26T19:50:58.988Z,27.23
2019-02-26T19:54:04.741Z,27.50
2019-02-26T19:57:09.801Z,27.17
2019-02-26T20:00:19.892Z,27.37
2019-02-26T20:03:24.366Z,25.80
2019-02-26T20:06:29.168Z,24.97
2019-02-26T20:09:38.404Z,25.00
2019-02-26T20:12:41.481Z,25.07
2019-02-26T20:15:46.410Z,25.37
2019-02-26T20:18:52.336Z,25.90
2019-02-26T20:21:57.007Z,23.47
2019-02-26T20:25:01.460Z,23.13
2019-02-26T20:28:06.242Z,22.70
2019-02-26T20:31:10.805Z,24.20
2019-02-26T20:34:15.132Z,24.63
2019-02-26T20:37:24.404Z,25.33
2019-02-26T20:40:28.570Z,25.97
2019-02-26T20:43:36.439Z,25.53
2019-02-26T20:46:39.351Z,24.97
2019-02-26T20:49:46.273Z,25.73
2019-02-26T20:52:50.012Z,25.13
2019-02-26T20:55:57.445Z,25.37
2019-02-26T20:59:02.022Z,26.83
2019-02-26T21:02:06.468Z,25.73
2019-02-26T21:05:11.293Z,26.33
2019-02-26T21:08:15.745Z,27.40
2019-02-26T21:11:23.183Z,27.27
2019-02-26T21:14:26.199Z,25.97
2019-02-26T21:17:30.784Z,26.90
2019-02-26T21:20:35.119Z,25.50
2019-02-26T21:23:39.545Z,26.87
2019-02-26T21:26:43.871Z,27.20
2019-02-26T21:29:48.167Z,27.30
2019-02-26T21:32:52.536Z,28.20
2019-02-26T21:35:57.007Z,28.47
2019-02-26T21:39:03.552Z,31.40
2019-02-26T21:42:07.865Z,30.87
2019-02-26T21:45:16.178Z,31.10
2019-02-26T21:48:22.723Z,31.93
2019-02-26T21:51:27.039Z,31.57
2019-02-26T21:54:34.425Z,30.93
2019-02-26T21:57:38.745Z,31.30
2019-02-26T22:00:43.048Z,29.60
2019-02-26T22:03:48.740Z,30.60
2019-02-26T22:06:53.125Z,29.37
2019-02-26T22:09:57.422Z,32.03
2019-02-26T22:13:01.733Z,30.53
2019-02-26T22:16:06.031Z,29.37
2019-02-26T22:19:11.919Z,30.13
2019-02-26T22:22:16.264Z,29.97
2019-02-26T22:25:20.580Z,31.67
2019-02-26T22:28:25.959Z,31.43
2019-02-26T22:31:30.363Z,31.40
2019-02-26T22:34:34.702Z,28.50
2019-02-26T22:37:41.452Z,31.27
2019-02-26T22:40:47.313Z,30.70
2019-02-26T22:43:51.625Z,31.87
2019-02-26T22:46:55.935Z,30.77
2019-02-26T22:50:00.245Z,30.30
2019-02-26T22:53:04.646Z,31.03
2019-02-26T22:56:09.003Z,31.97
2019-02-26T22:59:13.321Z,32.10
2019-02-26T23:02:17.624Z,33.33
2019-02-26T23:05:25.449Z,32.57
2019-02-26T23:08:27.984Z,30.67
2019-02-26T23:11:32.961Z,32.40
2019-02-26T23:14:38.761Z,30.00
2019-02-26T23:17:45.250Z,30.73
2019-02-26T23:20:49.543Z,31.67
2019-02-26T23:23:54.919Z,31.87
2019-02-26T23:27:00.754Z,34.13
2019-02-26T23:30:05.758Z,33.73
2019-02-26T23:33:15.000Z,32.30
2019-02-26T23:36:16.974Z,33.53
2019-02-26T23:39:22.182Z,33.57
2019-02-26T23:42:27.054Z,32.70
2019-02-26T23:45:31.356Z,31.73
2019-02-26T23:48:35.817Z,32.40
2019-02-26T23:51:40.110Z,30.57
2019-02-26T23:54:44.394Z,30.77
2019-02-26T23:57:48.672Z,30.07
